createdAt,value
2023-04-13T00:00:36.988Z,22.42
2023-04-13T00:03:05.055Z,24.30
2023-04-13T00:05:34.546Z,23.60
2023-04-13T00:08:03.071Z,25.17
2023-04-13T00:10:37.017Z,23.55
2023-04-13T00:13:05.303Z,23.33
2023-04-13T00:15:34.824Z,21.70
2023-04-13T00:18:02.263Z,23.73
2023-04-13T00:20:30.052Z,22.88
2023-04-13T00:22:57.161Z,22.08
2023-04-13T00:25:24.422Z,24.15
2023-04-13T00:27:54.584Z,23.70
2023-04-13T00:30:22.122Z,22.70
2023-04-13T00:32:49.704Z,23.95
2023-04-13T00:35:25.178Z,22.67
2023-04-13T00:37:53.279Z,23.48
2023-04-13T00:40:20.554Z,23.35
2023-04-13T00:42:48.907Z,23.90
2023-04-13T00:45:18.257Z,22.02
2023-04-13T00:47:49.329Z,22.75
2023-04-13T00:50:21.097Z,22.88
2023-04-13T00:52:48.995Z,22.40
2023-04-13T00:55:21.793Z,22.98
2023-04-13T00:57:52.969Z,23.70
2023-04-13T01:00:20.787Z,24.70
2023-04-13T01:02:48.222Z,23.92
2023-04-13T01:05:17.041Z,23.95
2023-04-13T01:08:14.937Z,24.55
2023-04-13T01:10:54.682Z,21.27
2023-04-13T01:13:34.393Z,23.38
2023-04-13T01:16:12.129Z,24.67
2023-04-13T01:18:41.807Z,24.65
2023-04-13T01:21:13.215Z,24.08
2023-04-13T01:24:18.041Z,24.35
2023-04-13T01:27:03.820Z,25.83
2023-04-13T01:29:31.894Z,26.33
2023-04-13T01:32:00.475Z,24.35
2023-04-13T01:34:27.563Z,25.45
2023-04-13T01:36:55.804Z,25.27
2023-04-13T01:39:25.550Z,24.67
2023-04-13T01:41:52.357Z,26.35
2023-04-13T01:44:19.623Z,26.38
2023-04-13T01:46:50.968Z,25.52
2023-04-13T01:49:20.168Z,27.60
2023-04-13T01:51:48.268Z,25.65
2023-04-13T01:54:20.636Z,25.52
2023-04-13T01:56:48.842Z,26.42
2023-04-13T01:59:16.710Z,26.40
2023-04-13T02:01:44.653Z,26.88
2023-04-13T02:04:11.860Z,25.33
2023-04-13T02:06:39.528Z,28.13
2023-04-13T02:09:10.660Z,27.58
2023-04-13T02:11:38.088Z,26.73
2023-04-13T02:14:05.311Z,27.05
2023-04-13T02:16:33.157Z,26.70
2023-04-13T02:19:00.239Z,27.27
2023-04-13T02:21:27.255Z,26.50
2023-04-13T02:23:54.618Z,26.85
2023-04-13T02:26:21.503Z,26.80
2023-04-13T02:28:50.147Z,26.70
2023-04-13T02:31:20.534Z,25.92
2023-04-13T02:33:48.281Z,24.75
2023-04-13T02:36:17.373Z,27.70
2023-04-13T02:38:44.984Z,27.60
2023-04-13T02:41:12.839Z,27.38
2023-04-13T02:43:39.640Z,26.50
2023-04-13T02:46:07.088Z,28.30
2023-04-13T02:48:34.378Z,26.77
2023-04-13T02:51:01.186Z,27.05
2023-04-13T02:53:28.315Z,26.98
2023-04-13T02:55:55.580Z,27.42
2023-04-13T02:58:23.941Z,27.08
2023-04-13T03:00:51.313Z,26.98
2023-04-13T03:03:19.221Z,26.25
2023-04-13T03:05:47.327Z,27.50
2023-04-13T03:08:14.556Z,25.65
2023-04-13T03:10:43.245Z,26.70
2023-04-13T03:13:10.437Z,27.52
2023-04-13T03:15:37.851Z,26.88
2023-04-13T03:18:05.247Z,27.67
2023-04-13T03:20:32.698Z,26.75
2023-04-13T03:23:01.769Z,26.42
2023-04-13T03:25:28.773Z,27.00
2023-04-13T03:27:56.381Z,28.15
2023-04-13T03:30:24.024Z,30.15
2023-04-13T03:32:52.446Z,30.05
2023-04-13T03:35:19.295Z,29.23
2023-04-13T03:37:46.835Z,29.00
2023-04-13T03:40:13.775Z,29.27
2023-04-13T03:42:41.005Z,28.58
2023-04-13T03:45:08.713Z,28.95
2023-04-13T03:47:36.116Z,29.02
2023-04-13T03:50:03.850Z,28.52
2023-04-13T03:52:31.296Z,29.52
2023-04-13T03:54:58.201Z,28.45
2023-04-13T03:57:25.243Z,28.42
2023-04-13T03:59:52.469Z,27.70
2023-04-13T04:02:19.443Z,29.10
2023-04-13T04:04:46.858Z,29.08
2023-04-13T04:07:14.446Z,29.42
2023-04-13T04:09:42.068Z,29.25
2023-04-13T04:12:09.285Z,30.08
2023-04-13T04:14:36.192Z,30.40
2023-04-13T04:17:03.238Z,29.90
2023-04-13T04:19:30.703Z,29.17
2023-04-13T04:21:58.129Z,28.63
2023-04-13T04:24:27.716Z,28.65
2023-04-13T04:26:55.753Z,29.10
2023-04-13T04:29:30.192Z,28.77
2023-04-13T04:31:57.424Z,28.20
2023-04-13T04:34:24.743Z,28.55
2023-04-13T04:36:52.987Z,27.40
2023-04-13T04:39:22.520Z,28.08
2023-04-13T04:42:03.844Z,27.08
2023-04-13T04:44:31.495Z,26.65
2023-04-13T04:46:59.679Z,26.13
2023-04-13T04:49:28.160Z,30.20
2023-04-13T04:51:55.996Z,27.40
2023-04-13T04:54:24.162Z,27.90
2023-04-13T04:56:51.930Z,27.92
2023-04-13T04:59:23.987Z,27.85
2023-04-13T05:01:51.255Z,27.02
2023-04-13T05:04:18.133Z,27.80
2023-04-13T05:06:45.424Z,28.40
2023-04-13T05:09:13.028Z,26.90
2023-04-13T05:11:39.871Z,26.00
2023-04-13T05:14:07.382Z,26.40
2023-04-13T05:16:34.829Z,25.77
2023-04-13T05:19:02.249Z,26.80
2023-04-13T05:21:29.695Z,26.58
2023-04-13T05:23:57.028Z,27.00
2023-04-13T05:26:25.651Z,26.50
2023-04-13T05:28:53.012Z,26.02
2023-04-13T05:31:20.515Z,25.13
2023-04-13T05:33:48.116Z,24.30
2023-04-13T05:36:15.316Z,27.42
2023-04-13T05:38:42.994Z,27.08
2023-04-13T05:41:10.541Z,27.33
2023-04-13T05:43:37.933Z,27.13
2023-04-13T05:46:06.159Z,25.30
2023-04-13T05:48:34.560Z,27.02
2023-04-13T05:51:01.974Z,26.75
2023-04-13T05:53:29.316Z,28.65
2023-04-13T05:55:56.221Z,28.65
2023-04-13T05:58:26.686Z,28.58
2023-04-13T06:00:54.270Z,28.02
2023-04-13T06:03:21.926Z,33.50
2023-04-13T06:05:49.567Z,28.45
2023-04-13T06:08:17.073Z,28.95
2023-04-13T06:10:47.289Z,29.55
2023-04-13T06:13:14.723Z,28.83
2023-04-13T06:15:41.688Z,26.98
2023-04-13T06:18:08.912Z,28.58
2023-04-13T06:20:36.044Z,28.23
2023-04-13T06:23:03.307Z,26.90
2023-04-13T06:25:30.954Z,27.25
2023-04-13T06:27:58.165Z,26.15
2023-04-13T06:30:25.071Z,26.20
2023-04-13T06:32:52.742Z,26.85
2023-04-13T06:35:20.692Z,27.40
2023-04-13T06:37:48.131Z,35.90
2023-04-13T06:40:16.073Z,24.80
2023-04-13T06:42:43.830Z,22.45
2023-04-13T06:45:11.906Z,20.70
2023-04-13T06:47:41.213Z,21.75
2023-04-13T06:50:10.166Z,20.25
2023-04-13T06:52:37.607Z,19.45
2023-04-13T06:55:05.955Z,20.63
2023-04-13T06:57:33.921Z,20.25
2023-04-13T07:00:01.905Z,19.45
2023-04-13T07:02:29.306Z,19.88
2023-04-13T07:04:56.696Z,20.15
2023-04-13T07:07:23.608Z,18.50
2023-04-13T07:09:50.840Z,19.00
2023-04-13T07:12:18.037Z,22.05
2023-04-13T07:14:49.312Z,19.83
2023-04-13T07:17:16.913Z,21.58
2023-04-13T07:19:47.990Z,20.98
2023-04-13T07:22:15.309Z,20.60
2023-04-13T07:24:42.804Z,19.00
2023-04-13T07:27:10.160Z,19.95
2023-04-13T07:29:37.704Z,20.73
2023-04-13T07:32:06.224Z,21.63
2023-04-13T07:34:33.269Z,20.33
2023-04-13T07:37:00.519Z,17.83
2023-04-13T07:39:27.987Z,18.38
2023-04-13T07:41:54.818Z,18.20
2023-04-13T07:44:22.745Z,117.88
2023-04-13T07:46:49.623Z,23.38
2023-04-13T07:49:16.910Z,20.83
2023-04-13T07:51:44.186Z,16.50
2023-04-13T07:54:11.048Z,17.30
2023-04-13T07:56:37.884Z,17.45
2023-04-13T07:59:05.231Z,19.15
2023-04-13T08:01:33.023Z,18.42
2023-04-13T08:03:59.929Z,19.95
2023-04-13T08:06:27.528Z,19.05
2023-04-13T08:08:54.916Z,16.45
2023-04-13T08:11:22.179Z,17.15
2023-04-13T08:13:49.053Z,17.30
2023-04-13T08:16:16.961Z,18.23
2023-04-13T08:18:44.274Z,19.60
2023-04-13T08:21:12.232Z,19.27
2023-04-13T08:23:42.655Z,18.35
2023-04-13T08:26:18.882Z,28.45
2023-04-13T08:28:51.002Z,20.63
2023-04-13T08:31:17.880Z,21.20
2023-04-13T08:33:44.781Z,20.35
2023-04-13T08:36:12.235Z,21.05
2023-04-13T08:38:39.068Z,21.27
2023-04-13T08:41:07.249Z,21.05
2023-04-13T08:43:35.875Z,19.85
2023-04-13T08:46:06.625Z,19.85
2023-04-13T08:48:53.446Z,20.23
2023-04-13T08:51:22.821Z,19.70
2023-04-13T08:53:53.716Z,19.60
2023-04-13T08:56:31.049Z,19.17
2023-04-13T08:59:08.213Z,18.83
2023-04-13T09:01:38.043Z,20.48
2023-04-13T09:04:10.622Z,19.75
2023-04-13T09:06:41.445Z,17.88
2023-04-13T09:09:11.288Z,18.75
2023-04-13T09:11:39.220Z,19.90
2023-04-13T09:14:06.152Z,19.10
2023-04-13T09:16:43.558Z,19.85
2023-04-13T09:19:11.499Z,19.08
2023-04-13T09:21:43.118Z,19.48
2023-04-13T09:24:10.989Z,21.58
2023-04-13T09:26:45.776Z,18.30
2023-04-13T09:29:17.948Z,19.85
2023-04-13T09:31:46.617Z,20.80
2023-04-13T09:34:14.431Z,24.55
2023-04-13T09:36:53.313Z,19.42
2023-04-13T09:39:26.584Z,18.75
2023-04-13T09:41:55.078Z,20.55
2023-04-13T09:44:27.522Z,18.02
2023-04-13T09:47:02.280Z,18.15
2023-04-13T09:49:38.453Z,17.23
2023-04-13T09:52:26.597Z,16.60
2023-04-13T09:54:55.708Z,16.85
2023-04-13T09:57:30.403Z,16.10
2023-04-13T10:00:00.650Z,17.40
2023-04-13T10:02:28.470Z,18.30
2023-04-13T10:04:56.990Z,17.42
2023-04-13T10:07:28.821Z,18.58
2023-04-13T10:09:56.289Z,18.77
2023-04-13T10:12:26.961Z,16.88
2023-04-13T10:14:59.897Z,18.63
2023-04-13T10:20:01.612Z,18.33
2023-04-13T10:22:30.425Z,18.65
2023-04-13T10:24:57.715Z,18.80
2023-04-13T10:27:28.397Z,17.35
2023-04-13T10:29:55.704Z,17.83
2023-04-13T10:32:23.268Z,17.55
2023-04-13T10:34:51.223Z,18.23
2023-04-13T10:37:27.460Z,18.50
2023-04-13T10:40:24.244Z,20.88
2023-04-13T10:42:53.375Z,18.05
2023-04-13T10:45:26.382Z,16.88
2023-04-13T10:47:54.396Z,15.38
2023-04-13T10:50:27.324Z,14.90
2023-04-13T10:53:12.294Z,13.98
2023-04-13T10:55:39.486Z,13.32
2023-04-13T10:58:17.419Z,19.27
2023-04-13T11:00:47.068Z,15.45
2023-04-13T11:03:20.879Z,14.65
2023-04-13T11:05:56.614Z,15.13
2023-04-13T11:08:24.378Z,14.15
2023-04-13T11:10:55.497Z,13.57
2023-04-13T11:13:25.435Z,14.18
2023-04-13T11:15:53.769Z,14.15
2023-04-13T11:18:27.222Z,13.35
2023-04-13T11:20:54.576Z,14.52
2023-04-13T11:23:23.982Z,20.77
2023-04-13T11:25:58.626Z,13.85
2023-04-13T11:28:27.208Z,13.57
2023-04-13T11:30:55.527Z,12.85
2023-04-13T11:33:31.305Z,7.22
2023-04-13T11:36:00.263Z,7.40
2023-04-13T11:38:28.360Z,7.93
2023-04-13T11:43:35.141Z,6.68
2023-04-13T11:46:02.693Z,6.40
2023-04-13T11:48:29.676Z,7.40
2023-04-13T11:50:56.945Z,7.43
2023-04-13T11:53:24.439Z,6.80
2023-04-13T11:55:53.778Z,6.10
2023-04-13T11:58:21.866Z,6.10
2023-04-13T12:00:49.974Z,6.53
2023-04-13T12:05:48.351Z,4.63
2023-04-13T12:08:26.040Z,4.70
2023-04-13T12:14:05.833Z,4.45
2023-04-13T12:19:09.804Z,5.47
2023-04-13T12:21:39.895Z,4.55
2023-04-13T12:24:07.467Z,6.75
2023-04-13T12:27:10.275Z,6.00
2023-04-13T12:29:25.931Z,4.97
2023-04-13T12:31:58.819Z,5.70
2023-04-13T12:36:52.490Z,3.67
2023-04-13T12:39:19.507Z,4.57
2023-04-13T12:41:47.063Z,4.47
2023-04-13T12:44:14.931Z,4.07
2023-04-13T12:46:42.701Z,3.40
2023-04-13T12:49:09.942Z,3.58
2023-04-13T12:51:36.785Z,4.57
2023-04-13T12:54:08.789Z,12.80
2023-04-13T12:56:35.986Z,4.45
2023-04-13T12:59:03.205Z,3.42
2023-04-13T13:01:30.796Z,3.70
2023-04-13T13:03:58.154Z,4.00
2023-04-13T13:06:26.134Z,3.63
2023-04-13T13:08:53.014Z,3.60
2023-04-13T13:11:20.838Z,3.30
2023-04-13T13:13:48.365Z,3.70
2023-04-13T13:16:15.702Z,3.50
2023-04-13T13:18:50.485Z,4.13
2023-04-13T13:21:19.669Z,3.88
2023-04-13T13:23:46.947Z,4.65
2023-04-13T13:26:23.917Z,4.07
2023-04-13T13:28:52.449Z,3.67
2023-04-13T13:31:19.960Z,3.83
2023-04-13T13:33:47.309Z,3.22
2023-04-13T13:36:14.824Z,6.18
2023-04-13T13:38:57.298Z,3.92
2023-04-13T13:41:25.574Z,4.50
2023-04-13T13:43:52.902Z,4.35
2023-04-13T13:46:19.759Z,4.57
2023-04-13T13:48:47.033Z,5.20
2023-04-13T13:51:13.940Z,4.40
2023-04-13T13:53:41.167Z,4.15
2023-04-13T13:56:08.376Z,4.07
2023-04-13T13:58:35.591Z,3.58
2023-04-13T14:01:02.955Z,3.67
2023-04-13T14:03:30.491Z,3.90
2023-04-13T14:05:57.828Z,3.78
2023-04-13T14:08:25.020Z,3.88
2023-04-13T14:10:52.261Z,3.55
2023-04-13T14:13:19.472Z,4.22
2023-04-13T14:15:47.480Z,3.97
2023-04-13T14:18:14.829Z,3.97
2023-04-13T14:20:43.467Z,4.78
2023-04-13T14:23:11.263Z,3.88
2023-04-13T14:25:41.496Z,3.92
2023-04-13T14:28:09.291Z,4.43
2023-04-13T14:30:36.741Z,4.30
2023-04-13T14:33:04.552Z,4.43
2023-04-13T14:35:31.740Z,4.35
2023-04-13T14:37:59.613Z,5.13
2023-04-13T14:40:28.294Z,4.55
2023-04-13T14:42:55.137Z,3.60
2023-04-13T14:45:22.402Z,3.88
2023-04-13T14:47:49.781Z,3.88
2023-04-13T14:50:17.451Z,4.20
2023-04-13T14:52:45.869Z,4.47
2023-04-13T14:55:14.144Z,5.00
2023-04-13T14:57:42.102Z,6.88
2023-04-13T15:00:16.225Z,3.85
2023-04-13T15:02:43.632Z,4.82
2023-04-13T15:05:10.573Z,5.72
2023-04-13T15:07:38.236Z,4.15
2023-04-13T15:10:05.577Z,3.97
2023-04-13T15:12:32.824Z,4.43
2023-04-13T15:15:00.778Z,4.10
2023-04-13T15:17:29.606Z,5.13
2023-04-13T15:19:57.007Z,4.00
2023-04-13T15:22:24.228Z,4.68
2023-04-13T15:24:51.511Z,4.05
2023-04-13T15:27:18.755Z,4.00
2023-04-13T15:29:46.052Z,3.90
2023-04-13T15:32:13.377Z,5.10
2023-04-13T15:34:40.723Z,5.38
2023-04-13T15:37:07.584Z,4.43
2023-04-13T15:39:34.764Z,4.95
2023-04-13T15:42:02.184Z,4.60
2023-04-13T15:44:29.038Z,4.63
2023-04-13T15:46:56.210Z,4.20
2023-04-13T15:49:23.415Z,4.15
2023-04-13T15:51:50.891Z,4.35
2023-04-13T15:54:18.099Z,4.35
2023-04-13T15:56:45.462Z,4.47
2023-04-13T15:59:12.919Z,4.22
2023-04-13T16:01:47.928Z,5.53
2023-04-13T16:04:15.857Z,4.70
2023-04-13T16:06:43.189Z,6.45
2023-04-13T16:09:10.033Z,9.10
2023-04-13T16:11:39.898Z,36.03
2023-04-13T16:14:09.897Z,7.50
2023-04-13T16:16:53.431Z,12.65
2023-04-13T16:19:21.045Z,7.03
2023-04-13T16:21:51.155Z,16.13
2023-04-13T16:24:20.178Z,4.60
2023-04-13T16:26:47.360Z,7.15
2023-04-13T16:29:14.194Z,4.70
2023-04-13T16:31:44.894Z,4.28
2023-04-13T16:36:45.654Z,8.45
2023-04-13T16:39:13.334Z,6.30
2023-04-13T16:41:40.780Z,5.90
2023-04-13T16:44:08.019Z,6.88
2023-04-13T16:46:35.435Z,6.82
2023-04-13T16:49:02.759Z,5.65
2023-04-13T16:51:31.634Z,5.85
2023-04-13T16:53:58.853Z,8.60
2023-04-13T16:56:31.929Z,5.93
2023-04-13T17:01:26.961Z,10.23
2023-04-13T17:03:54.401Z,8.40
2023-04-13T17:06:21.702Z,7.43
2023-04-13T17:08:49.079Z,5.40
2023-04-13T17:11:15.995Z,5.97
2023-04-13T17:13:43.290Z,15.52
2023-04-13T17:16:10.933Z,19.40
2023-04-13T17:18:38.262Z,12.30
2023-04-13T17:21:05.201Z,18.02
2023-04-13T17:23:32.406Z,14.30
2023-04-13T17:25:59.299Z,10.95
2023-04-13T17:28:27.159Z,7.75
2023-04-13T17:30:54.451Z,14.43
2023-04-13T17:33:22.101Z,13.52
2023-04-13T17:35:53.034Z,7.88
2023-04-13T17:38:19.986Z,8.60
2023-04-13T17:40:47.233Z,7.43
2023-04-13T17:43:14.138Z,14.75
2023-04-13T17:45:41.036Z,10.43
2023-04-13T17:48:08.351Z,40.25
2023-04-13T17:50:35.305Z,25.92
2023-04-13T17:53:04.187Z,30.25
2023-04-13T17:55:32.112Z,24.45
2023-04-13T17:57:59.317Z,29.50
2023-04-13T18:00:28.899Z,28.65
2023-04-13T18:02:56.107Z,22.80
2023-04-13T18:05:24.114Z,21.33
2023-04-13T18:07:51.406Z,19.30
2023-04-13T18:10:18.729Z,12.10
2023-04-13T18:12:46.091Z,11.13
2023-04-13T18:15:13.308Z,10.30
2023-04-13T18:17:41.025Z,10.40
2023-04-13T18:20:09.158Z,9.85
2023-04-13T18:22:36.990Z,10.40
2023-04-13T18:25:04.376Z,10.82
2023-04-13T18:27:31.751Z,11.55
2023-04-13T18:29:58.935Z,12.20
2023-04-13T18:32:26.250Z,11.90
2023-04-13T18:34:53.051Z,12.52
2023-04-13T18:37:20.506Z,12.32
2023-04-13T18:39:47.716Z,12.25
2023-04-13T18:42:14.563Z,11.82
2023-04-13T18:44:41.831Z,12.65
2023-04-13T18:47:09.100Z,14.63
2023-04-13T18:49:36.362Z,15.23
2023-04-13T18:52:03.697Z,15.00
2023-04-13T18:54:32.304Z,15.80
2023-04-13T18:56:59.526Z,15.35
2023-04-13T18:59:28.179Z,15.43
2023-04-13T19:01:55.551Z,15.93
2023-04-13T19:04:23.071Z,17.17
2023-04-13T19:06:50.445Z,42.20
2023-04-13T19:09:18.277Z,29.83
2023-04-13T19:11:46.907Z,19.63
2023-04-13T19:14:14.315Z,23.33
2023-04-13T19:16:41.764Z,23.17
2023-04-13T19:19:09.121Z,24.63
2023-04-13T19:21:36.299Z,25.77
2023-04-13T19:24:04.039Z,28.63
2023-04-13T19:26:30.889Z,28.73
2023-04-13T19:28:57.958Z,29.20
2023-04-13T19:31:25.193Z,25.38
2023-04-13T19:33:53.353Z,24.40
2023-04-13T19:36:20.671Z,22.58
2023-04-13T19:38:48.000Z,22.33
2023-04-13T19:41:15.429Z,21.38
2023-04-13T19:43:42.235Z,18.75
2023-04-13T19:46:09.652Z,17.17
2023-04-13T19:48:36.988Z,18.02
2023-04-13T19:51:04.931Z,17.85
2023-04-13T19:53:32.241Z,16.95
2023-04-13T19:55:59.030Z,17.58
2023-04-13T19:58:26.628Z,15.90
2023-04-13T20:00:54.481Z,15.27
2023-04-13T20:03:21.661Z,13.63
2023-04-13T20:05:49.062Z,13.07
2023-04-13T20:08:17.074Z,12.75
2023-04-13T20:10:44.376Z,12.57
2023-04-13T20:13:11.553Z,91.47
2023-04-13T20:15:39.559Z,14.13
2023-04-13T20:18:07.287Z,11.45
2023-04-13T20:20:36.339Z,12.50
2023-04-13T20:23:03.877Z,12.05
2023-04-13T20:25:30.894Z,11.82
2023-04-13T20:27:58.089Z,10.52
2023-04-13T20:30:25.880Z,10.52
2023-04-13T20:32:53.149Z,10.48
2023-04-13T20:35:21.284Z,10.13
2023-04-13T20:37:49.222Z,10.88
2023-04-13T20:40:17.804Z,10.20
2023-04-13T20:42:45.295Z,9.40
2023-04-13T20:45:14.932Z,9.77
2023-04-13T20:47:42.718Z,10.35
2023-04-13T20:50:10.661Z,10.05
2023-04-13T20:52:41.893Z,9.80
2023-04-13T20:55:11.788Z,10.38
2023-04-13T20:57:42.632Z,9.93
2023-04-13T21:00:15.489Z,9.73
2023-04-13T21:05:10.886Z,9.13
2023-04-13T21:07:40.134Z,8.75
2023-04-13T21:10:08.398Z,8.65
2023-04-13T21:12:35.922Z,9.02
2023-04-13T21:15:04.170Z,9.02
2023-04-13T21:17:31.906Z,10.18
2023-04-13T21:19:58.759Z,9.88
2023-04-13T21:22:27.307Z,18.33
2023-04-13T21:24:54.245Z,33.78
2023-04-13T21:27:22.533Z,11.88
2023-04-13T21:29:49.706Z,10.85
2023-04-13T21:32:17.163Z,12.00
2023-04-13T21:34:44.551Z,12.70
2023-04-13T21:37:11.752Z,11.93
2023-04-13T21:39:38.920Z,11.95
2023-04-13T21:42:05.883Z,10.73
2023-04-13T21:44:33.074Z,11.60
2023-04-13T21:46:59.986Z,11.10
2023-04-13T21:49:27.509Z,10.82
2023-04-13T21:51:54.822Z,11.25
2023-04-13T21:54:22.200Z,10.25
2023-04-13T21:56:49.359Z,9.57
2023-04-13T21:59:16.235Z,9.43
2023-04-13T22:01:43.141Z,10.48
2023-04-13T22:04:10.196Z,9.10
2023-04-13T22:06:37.481Z,10.68
2023-04-13T22:09:04.494Z,8.80
2023-04-13T22:11:31.680Z,9.82
2023-04-13T22:14:00.298Z,8.73
2023-04-13T22:16:28.519Z,9.40
2023-04-13T22:18:55.776Z,9.45
2023-04-13T22:21:22.973Z,8.38
2023-04-13T22:23:50.384Z,7.85
2023-04-13T22:26:17.211Z,8.43
2023-04-13T22:28:44.044Z,8.55
2023-04-13T22:31:14.434Z,8.45
2023-04-13T22:33:41.726Z,8.73
2023-04-13T22:36:17.778Z,8.38
2023-04-13T22:38:44.618Z,8.65
2023-04-13T22:41:11.816Z,7.95
2023-04-13T22:43:39.461Z,8.13
2023-04-13T22:46:07.919Z,7.72
2023-04-13T22:48:35.301Z,8.82
2023-04-13T22:51:04.238Z,7.95
2023-04-13T22:53:31.758Z,8.35
2023-04-13T22:56:00.684Z,7.65
2023-04-13T22:58:28.172Z,7.90
2023-04-13T23:00:55.080Z,8.85
2023-04-13T23:03:22.649Z,8.15
2023-04-13T23:05:49.863Z,9.18
2023-04-13T23:08:17.195Z,8.18
2023-04-13T23:10:44.430Z,8.23
2023-04-13T23:13:11.737Z,8.77
2023-04-13T23:15:39.478Z,8.07
2023-04-13T23:18:06.643Z,8.07
2023-04-13T23:20:34.124Z,7.63
2023-04-13T23:23:01.779Z,8.20
2023-04-13T23:25:29.053Z,7.38
2023-04-13T23:27:56.312Z,8.30
2023-04-13T23:30:23.653Z,8.15
2023-04-13T23:32:51.031Z,9.18
2023-04-13T23:35:17.950Z,8.68
2023-04-13T23:37:46.240Z,8.63
2023-04-13T23:40:13.162Z,8.55
2023-04-13T23:42:40.592Z,8.52
2023-04-13T23:45:08.147Z,8.45
2023-04-13T23:47:35.018Z,8.82
2023-04-13T23:50:02.826Z,8.68
2023-04-13T23:52:30.041Z,9.00
2023-04-13T23:54:57.258Z,9.48
2023-04-13T23:57:24.444Z,9.18
2023-04-13T23:59:57.665Z,9.18
